createdAt,value
2019-05-03T00:02:03.791Z,8.40
2019-05-03T00:04:32.315Z,8.60
2019-05-03T00:07:02.610Z,8.80
2019-05-03T00:09:31.977Z,8.90
2019-05-03T00:12:01.918Z,8.90
2019-05-03T00:14:32.452Z,8.80
2019-05-03T00:17:02.313Z,8.60
2019-05-03T00:19:32.715Z,8.50
2019-05-03T00:22:02.135Z,8.50
2019-05-03T00:24:32.117Z,8.50
2019-05-03T00:27:01.945Z,8.50
2019-05-03T00:29:32.345Z,8.50
2019-05-03T00:32:01.973Z,8.50
2019-05-03T00:34:51.936Z,8.50
2019-05-03T00:37:28.291Z,8.50
2019-05-03T00:40:07.283Z,8.50
2019-05-03T00:42:35.947Z,8.60
2019-05-03T00:45:07.350Z,8.60
2019-05-03T00:47:36.033Z,8.50
2019-05-03T00:50:06.001Z,8.60
2019-05-03T00:52:34.555Z,8.70
2019-05-03T00:55:15.232Z,8.60
2019-05-03T00:57:33.437Z,8.50
2019-05-03T01:00:02.411Z,8.40
2019-05-03T01:02:31.838Z,8.40
2019-05-03T01:05:02.601Z,8.30
2019-05-03T01:07:31.839Z,8.20
2019-05-03T01:10:02.691Z,8.20
2019-05-03T01:12:32.395Z,8.30
2019-05-03T01:15:02.864Z,8.30
2019-05-03T01:17:32.315Z,8.30
2019-05-03T01:20:02.767Z,8.20
2019-05-03T01:22:32.231Z,8.20
2019-05-03T01:25:02.965Z,8.20
2019-05-03T01:27:32.619Z,8.10
2019-05-03T01:30:02.890Z,8.20
2019-05-03T01:32:32.938Z,8.10
2019-05-03T01:35:03.290Z,8.10
2019-05-03T01:37:32.060Z,8.10
2019-05-03T01:40:02.398Z,8.10
2019-05-03T01:42:32.103Z,8.10
2019-05-03T01:45:01.745Z,8.00
2019-05-03T01:47:32.634Z,8.00
2019-05-03T01:50:02.979Z,8.00
2019-05-03T01:52:35.578Z,7.90
2019-05-03T01:55:05.598Z,7.90
2019-05-03T01:57:34.186Z,8.00
2019-05-03T02:00:03.350Z,8.00
2019-05-03T02:02:33.544Z,8.00
2019-05-03T02:05:06.596Z,8.00
2019-05-03T02:07:35.148Z,8.10
2019-05-03T02:10:06.484Z,8.30
2019-05-03T02:12:35.101Z,8.40
2019-05-03T02:15:05.384Z,8.40
2019-05-03T02:17:33.946Z,8.40
2019-05-03T02:20:02.551Z,8.40
2019-05-03T02:22:31.920Z,8.40
2019-05-03T02:25:01.733Z,8.40
2019-05-03T02:27:32.507Z,8.40
2019-05-03T02:30:03.099Z,8.40
2019-05-03T02:32:33.090Z,8.50
2019-05-03T02:35:02.779Z,8.60
2019-05-03T02:37:33.039Z,8.70
2019-05-03T02:40:04.261Z,8.80
2019-05-03T02:42:32.096Z,8.90
2019-05-03T02:45:00.928Z,9.00
2019-05-03T02:47:47.155Z,8.90
2019-05-03T02:50:17.210Z,8.90
2019-05-03T02:52:46.011Z,8.80
2019-05-03T02:55:15.967Z,8.90
2019-05-03T02:57:46.666Z,8.90
2019-05-03T03:00:16.633Z,8.90
2019-05-03T03:02:45.771Z,8.90
2019-05-03T03:05:16.657Z,8.90
2019-05-03T03:07:46.755Z,8.90
2019-05-03T03:10:16.345Z,9.00
2019-05-03T03:12:46.960Z,8.90
2019-05-03T03:15:16.390Z,8.80
2019-05-03T03:17:47.094Z,8.70
2019-05-03T03:20:16.337Z,8.60
2019-05-03T03:22:46.472Z,8.60
2019-05-03T03:25:17.632Z,8.60
2019-05-03T03:27:48.781Z,8.60
2019-05-03T03:30:38.485Z,8.60
2019-05-03T03:33:10.375Z,8.60
2019-05-03T03:35:41.644Z,8.60
2019-05-03T03:38:10.329Z,8.70
2019-05-03T03:40:39.531Z,8.70
2019-05-03T03:43:10.408Z,8.70
2019-05-03T03:45:39.504Z,8.60
2019-05-03T03:48:10.335Z,8.70
2019-05-03T03:50:41.725Z,8.70
2019-05-03T03:53:12.019Z,8.80
2019-05-03T03:55:45.636Z,8.80
2019-05-03T03:58:21.244Z,8.70
2019-05-03T04:00:46.174Z,8.80
2019-05-03T04:03:15.854Z,8.90
2019-05-03T04:05:46.725Z,8.90
2019-05-03T04:08:16.149Z,9.00
2019-05-03T04:10:46.329Z,8.90
2019-05-03T04:13:16.828Z,8.80
2019-05-03T04:15:47.079Z,8.90
2019-05-03T04:18:30.232Z,8.70
2019-05-03T04:20:58.981Z,8.60
2019-05-03T04:23:30.094Z,8.70
2019-05-03T04:25:58.729Z,8.60
2019-05-03T04:28:27.392Z,8.70
2019-05-03T04:30:56.106Z,8.70
2019-05-03T04:33:26.922Z,8.70
2019-05-03T04:35:55.730Z,8.70
2019-05-03T04:38:25.603Z,8.70
2019-05-03T04:40:56.143Z,8.70
2019-05-03T04:43:26.451Z,8.80
2019-05-03T04:46:06.189Z,8.70
2019-05-03T04:48:35.581Z,8.80
2019-05-03T04:51:05.630Z,8.70
2019-05-03T04:53:35.748Z,8.50
2019-05-03T04:56:05.698Z,8.50
2019-05-03T04:58:36.410Z,8.50
2019-05-03T05:01:06.446Z,8.60
2019-05-03T05:03:36.097Z,8.70
2019-05-03T05:06:06.267Z,8.80
2019-05-03T05:08:35.867Z,8.80
2019-05-03T05:11:06.757Z,8.90
2019-05-03T05:13:35.732Z,8.90
2019-05-03T05:16:05.890Z,8.80
2019-05-03T05:18:39.239Z,8.80
2019-05-03T05:21:15.288Z,8.80
2019-05-03T05:24:00.409Z,8.70
2019-05-03T05:26:39.615Z,8.80
2019-05-03T05:29:09.881Z,8.90
2019-05-03T05:31:38.466Z,9.00
2019-05-03T05:34:08.824Z,9.00
2019-05-03T05:36:37.357Z,9.10
2019-05-03T05:39:07.142Z,9.00
2019-05-03T05:41:35.824Z,8.90
2019-05-03T05:44:05.411Z,9.00
2019-05-03T05:46:41.535Z,9.00
2019-05-03T05:49:11.737Z,9.00
2019-05-03T05:51:40.276Z,8.90
2019-05-03T05:54:08.870Z,9.00
2019-05-03T05:56:42.003Z,9.10
2019-05-03T05:59:21.403Z,9.10
2019-05-03T06:01:51.605Z,9.10
2019-05-03T06:04:20.141Z,9.10
2019-05-03T06:06:56.631Z,9.10
2019-05-03T06:09:44.772Z,9.10
2019-05-03T06:12:17.687Z,9.10
2019-05-03T06:14:47.851Z,9.10
2019-05-03T06:17:18.072Z,9.10
2019-05-03T06:19:48.263Z,9.10
2019-05-03T06:22:27.327Z,9.20
2019-05-03T06:25:07.043Z,9.20
2019-05-03T06:27:37.234Z,9.20
2019-05-03T06:30:17.528Z,9.20
2019-05-03T06:32:46.089Z,9.20
2019-05-03T06:35:15.223Z,9.20
2019-05-03T06:37:45.857Z,9.20
2019-05-03T06:40:15.090Z,9.10
2019-05-03T06:42:52.329Z,9.20
2019-05-03T06:45:15.080Z,9.20
2019-05-03T06:47:48.125Z,9.10
2019-05-03T06:50:14.620Z,9.10
2019-05-03T06:52:44.523Z,9.20
2019-05-03T06:55:14.526Z,9.20
2019-05-03T06:57:49.196Z,9.20
2019-05-03T07:00:17.690Z,9.30
2019-05-03T07:02:47.895Z,9.30
2019-05-03T07:05:35.432Z,9.40
2019-05-03T07:08:22.167Z,9.30
2019-05-03T07:10:52.417Z,9.10
2019-05-03T07:13:20.920Z,9.20
2019-05-03T07:15:49.450Z,9.30
2019-05-03T07:18:18.013Z,9.40
2019-05-03T07:20:51.115Z,9.30
2019-05-03T07:23:19.652Z,9.30
2019-05-03T07:25:48.283Z,9.20
2019-05-03T07:28:16.876Z,9.20
2019-05-03T07:30:45.609Z,9.30
2019-05-03T07:33:30.994Z,9.40
2019-05-03T07:35:59.595Z,9.50
2019-05-03T07:38:28.162Z,9.60
2019-05-03T07:40:56.751Z,9.60
2019-05-03T07:43:25.390Z,9.70
2019-05-03T07:45:55.235Z,9.70
2019-05-03T07:48:25.495Z,9.70
2019-05-03T07:50:54.651Z,9.70
2019-05-03T07:53:25.197Z,9.80
2019-05-03T07:56:05.216Z,9.90
2019-05-03T07:58:35.702Z,9.80
2019-05-03T08:01:21.437Z,9.80
2019-05-03T08:03:50.063Z,9.80
2019-05-03T08:06:18.600Z,9.80
2019-05-03T08:08:47.195Z,9.90
2019-05-03T08:11:15.736Z,9.90
2019-05-03T08:13:44.729Z,9.90
2019-05-03T08:16:15.915Z,9.80
2019-05-03T08:18:45.701Z,9.80
2019-05-03T08:21:14.933Z,9.80
2019-05-03T08:23:45.339Z,9.80
2019-05-03T08:26:15.264Z,9.90
2019-05-03T08:28:44.479Z,9.80
2019-05-03T08:31:20.471Z,9.80
2019-05-03T08:33:55.324Z,9.70
2019-05-03T08:36:24.751Z,9.60
2019-05-03T08:38:53.520Z,9.60
2019-05-03T08:41:24.730Z,9.60
2019-05-03T08:43:54.987Z,9.70
2019-05-03T08:46:25.415Z,9.70
2019-05-03T08:48:54.830Z,9.60
2019-05-03T08:51:25.025Z,9.60
2019-05-03T08:53:55.766Z,9.80
2019-05-03T08:56:24.548Z,10.00
2019-05-03T08:58:55.304Z,10.10
2019-05-03T09:01:25.117Z,10.30
2019-05-03T09:03:55.749Z,10.50
2019-05-03T09:06:24.797Z,10.70
2019-05-03T09:08:56.596Z,10.90
2019-05-03T09:11:31.861Z,11.10
2019-05-03T09:13:57.992Z,11.30
2019-05-03T09:16:26.636Z,11.40
2019-05-03T09:18:55.302Z,11.40
2019-05-03T09:21:25.574Z,11.50
2019-05-03T09:23:55.364Z,11.50
2019-05-03T09:26:28.847Z,11.70
2019-05-03T09:28:55.636Z,11.70
2019-05-03T09:31:24.828Z,11.80
2019-05-03T09:33:54.842Z,11.80
2019-05-03T09:36:25.365Z,11.70
2019-05-03T09:38:54.858Z,11.70
2019-05-03T09:41:25.564Z,11.60
2019-05-03T09:43:55.501Z,11.70
2019-05-03T09:46:26.472Z,11.80
2019-05-03T09:49:09.431Z,11.80
2019-05-03T09:51:25.717Z,11.80
2019-05-03T09:53:55.898Z,11.70
2019-05-03T09:56:53.445Z,11.50
2019-05-03T09:59:14.646Z,11.40
2019-05-03T10:01:45.440Z,11.20
2019-05-03T10:04:13.211Z,11.10
2019-05-03T10:06:41.779Z,11.10
2019-05-03T10:09:10.403Z,11.00
2019-05-03T10:11:38.958Z,11.00
2019-05-03T10:14:07.504Z,11.00
2019-05-03T10:16:37.767Z,11.00
2019-05-03T10:19:06.335Z,11.00
2019-05-03T10:21:36.518Z,10.90
2019-05-03T10:24:05.839Z,11.00
2019-05-03T10:26:35.579Z,11.00
2019-05-03T10:29:05.517Z,11.00
2019-05-03T10:31:35.808Z,11.10
2019-05-03T10:34:05.780Z,11.10
2019-05-03T10:36:35.662Z,11.20
2019-05-03T10:39:05.484Z,11.30
2019-05-03T10:41:34.817Z,11.50
2019-05-03T10:44:05.919Z,11.60
2019-05-03T10:46:35.307Z,11.70
2019-05-03T10:49:05.744Z,11.80
2019-05-03T10:51:35.994Z,11.90
2019-05-03T10:54:05.205Z,11.90
2019-05-03T10:56:41.335Z,11.90
2019-05-03T10:59:11.544Z,12.00
2019-05-03T11:01:41.744Z,12.10
2019-05-03T11:04:10.374Z,12.10
2019-05-03T11:06:38.974Z,12.30
2019-05-03T11:09:07.755Z,12.50
2019-05-03T11:11:36.314Z,12.60
2019-05-03T11:14:05.628Z,12.80
2019-05-03T11:16:35.154Z,12.90
2019-05-03T11:19:05.440Z,13.00
2019-05-03T11:21:34.755Z,13.00
2019-05-03T11:24:03.482Z,13.10
2019-05-03T11:26:34.697Z,13.10
2019-05-03T11:29:04.992Z,13.10
2019-05-03T11:31:46.590Z,13.00
2019-05-03T11:34:16.788Z,12.90
2019-05-03T11:37:04.954Z,12.70
2019-05-03T11:39:34.449Z,12.50
2019-05-03T11:42:04.691Z,12.40
2019-05-03T11:44:36.367Z,12.30
2019-05-03T11:47:05.801Z,12.10
2019-05-03T11:49:34.960Z,12.10
2019-05-03T11:52:06.248Z,12.10
2019-05-03T11:54:35.898Z,12.30
2019-05-03T11:57:08.519Z,12.70
2019-05-03T11:59:37.060Z,13.00
2019-05-03T12:02:19.721Z,13.00
2019-05-03T12:04:48.324Z,12.80
2019-05-03T12:07:38.991Z,12.70
2019-05-03T12:10:13.587Z,12.60
2019-05-03T12:12:38.097Z,12.70
2019-05-03T12:15:07.487Z,12.80
2019-05-03T12:17:50.738Z,12.90
2019-05-03T12:20:12.563Z,12.90
2019-05-03T12:22:41.883Z,12.80
2019-05-03T12:25:11.875Z,12.70
2019-05-03T12:27:40.986Z,12.60
2019-05-03T12:30:10.253Z,12.60
2019-05-03T12:32:38.835Z,12.40
2019-05-03T12:35:07.499Z,12.20
2019-05-03T12:37:36.079Z,12.20
2019-05-03T12:40:05.872Z,12.00
2019-05-03T12:42:35.452Z,11.90
2019-05-03T12:45:06.339Z,11.90
2019-05-03T12:47:34.888Z,11.90
2019-05-03T12:50:05.478Z,12.00
2019-05-03T12:52:35.471Z,11.90
2019-05-03T12:55:07.093Z,12.00
2019-05-03T12:57:36.000Z,12.00
2019-05-03T13:00:26.444Z,11.90
2019-05-03T13:03:05.946Z,11.90
2019-05-03T13:05:35.593Z,11.80
2019-05-03T13:08:39.685Z,11.80
2019-05-03T13:11:08.654Z,11.80
2019-05-03T13:13:37.331Z,11.60
2019-05-03T13:16:07.635Z,11.50
2019-05-03T13:18:36.315Z,11.30
2019-05-03T13:21:06.043Z,11.20
2019-05-03T13:23:35.511Z,11.00
2019-05-03T13:26:05.688Z,10.90
2019-05-03T13:28:34.989Z,10.90
2019-05-03T13:31:05.852Z,10.90
2019-05-03T13:33:34.851Z,11.00
2019-05-03T13:36:04.385Z,11.20
2019-05-03T13:38:34.972Z,11.30
2019-05-03T13:41:03.525Z,11.30
2019-05-03T13:43:32.150Z,11.40
2019-05-03T13:46:00.769Z,11.50
2019-05-03T13:48:41.670Z,11.50
2019-05-03T13:50:59.661Z,11.40
2019-05-03T13:53:28.283Z,11.40
2019-05-03T13:55:56.895Z,11.50
2019-05-03T13:58:26.448Z,11.40
2019-05-03T14:00:55.183Z,11.40
2019-05-03T14:03:23.901Z,11.30
2019-05-03T14:05:52.820Z,11.30
2019-05-03T14:08:21.373Z,11.30
2019-05-03T14:10:49.936Z,11.30
2019-05-03T14:13:18.611Z,11.30
2019-05-03T14:15:47.179Z,11.40
2019-05-03T14:18:15.844Z,11.40
2019-05-03T14:20:48.653Z,11.50
2019-05-03T14:23:17.331Z,11.50
2019-05-03T14:25:45.947Z,11.50
2019-05-03T14:28:14.691Z,11.50
2019-05-03T14:30:45.422Z,11.50
2019-05-03T14:33:14.227Z,11.50
2019-05-03T14:35:42.843Z,11.60
2019-05-03T14:38:11.482Z,11.70
2019-05-03T14:40:40.012Z,11.80
2019-05-03T14:43:08.619Z,11.80
2019-05-03T14:45:37.323Z,11.80
2019-05-03T14:48:06.376Z,11.70
2019-05-03T14:50:35.238Z,11.70
2019-05-03T14:53:05.409Z,11.70
2019-05-03T14:55:53.954Z,11.70
2019-05-03T14:58:35.715Z,11.70
2019-05-03T15:01:21.560Z,11.70
2019-05-03T15:03:50.176Z,11.80
2019-05-03T15:06:18.717Z,11.80
2019-05-03T15:08:47.285Z,11.80
2019-05-03T15:11:15.890Z,11.90
2019-05-03T15:13:45.576Z,11.80
2019-05-03T15:16:14.458Z,11.80
2019-05-03T15:18:45.240Z,11.80
2019-05-03T15:21:14.618Z,11.70
2019-05-03T15:23:45.206Z,11.70
2019-05-03T15:26:13.440Z,11.70
2019-05-03T15:28:42.057Z,11.70
2019-05-03T15:31:10.627Z,11.70
2019-05-03T15:33:39.154Z,11.60
2019-05-03T15:36:07.838Z,11.60
2019-05-03T15:38:36.391Z,11.70
2019-05-03T15:41:05.532Z,11.80
2019-05-03T15:43:38.677Z,11.90
2019-05-03T15:46:11.679Z,12.00
2019-05-03T15:48:45.836Z,12.00
2019-05-03T15:51:15.082Z,12.00
2019-05-03T15:53:44.406Z,11.90
2019-05-03T15:56:14.703Z,11.90
2019-05-03T15:58:46.432Z,11.80
2019-05-03T16:01:15.327Z,11.80
2019-05-03T16:03:44.873Z,11.70
2019-05-03T16:06:15.312Z,11.70
2019-05-03T16:08:44.642Z,11.70
2019-05-03T16:11:14.859Z,11.80
2019-05-03T16:13:44.824Z,11.70
2019-05-03T16:16:15.249Z,11.60
2019-05-03T16:18:44.837Z,11.50
2019-05-03T16:21:14.647Z,11.50
2019-05-03T16:23:46.267Z,11.50
2019-05-03T16:26:14.360Z,11.60
2019-05-03T16:28:46.402Z,11.70
2019-05-03T16:31:16.768Z,11.60
2019-05-03T16:33:45.758Z,11.60
2019-05-03T16:36:14.873Z,11.50
2019-05-03T16:38:44.931Z,11.50
2019-05-03T16:41:17.475Z,11.40
2019-05-03T16:43:45.517Z,11.40
2019-05-03T16:46:14.547Z,11.30
2019-05-03T16:48:44.813Z,11.30
2019-05-03T16:51:15.090Z,11.20
2019-05-03T16:53:44.507Z,11.20
2019-05-03T16:56:16.626Z,11.10
2019-05-03T16:58:44.649Z,11.00
2019-05-03T17:01:16.011Z,11.00
2019-05-03T17:03:45.644Z,10.80
2019-05-03T17:06:18.741Z,10.80
2019-05-03T17:08:51.750Z,10.70
2019-05-03T17:11:21.991Z,10.80
2019-05-03T17:13:50.569Z,11.00
2019-05-03T17:16:19.168Z,11.00
2019-05-03T17:18:47.666Z,11.00
2019-05-03T17:21:16.399Z,11.00
2019-05-03T17:23:44.931Z,10.90
2019-05-03T17:26:14.969Z,11.00
2019-05-03T17:28:44.788Z,11.10
2019-05-03T17:31:13.436Z,11.10
2019-05-03T17:33:51.492Z,11.00
2019-05-03T17:36:12.348Z,11.00
2019-05-03T17:38:40.947Z,10.90
2019-05-03T17:41:14.899Z,10.70
2019-05-03T17:43:50.931Z,10.50
2019-05-03T17:46:19.494Z,10.40
2019-05-03T17:48:48.188Z,10.40
2019-05-03T17:51:35.162Z,10.30
2019-05-03T17:54:08.616Z,10.10
2019-05-03T17:56:38.898Z,10.10
2019-05-03T17:59:09.148Z,10.10
2019-05-03T18:01:39.412Z,9.90
2019-05-03T18:04:18.953Z,9.90
2019-05-03T18:07:01.415Z,10.00
2019-05-03T18:09:34.745Z,10.10
2019-05-03T18:12:06.542Z,10.00
2019-05-03T18:14:35.248Z,9.90
2019-05-03T18:17:05.748Z,9.80
2019-05-03T18:19:34.427Z,9.90
2019-05-03T18:22:05.057Z,10.00
2019-05-03T18:24:35.035Z,10.00
2019-05-03T18:27:05.215Z,10.00
2019-05-03T18:29:34.636Z,9.90
2019-05-03T18:32:05.343Z,9.80
2019-05-03T18:34:34.126Z,9.80
2019-05-03T18:37:04.642Z,9.90
2019-05-03T18:39:34.724Z,9.90
2019-05-03T18:42:05.032Z,9.90
2019-05-03T18:44:35.446Z,9.80
2019-05-03T18:47:05.622Z,9.80
2019-05-03T18:49:35.371Z,9.90
2019-05-03T18:52:04.468Z,9.80
2019-05-03T18:54:34.924Z,9.70
2019-05-03T18:57:05.015Z,9.60
2019-05-03T18:59:33.712Z,9.50
2019-05-03T19:02:02.721Z,9.40
2019-05-03T19:04:37.885Z,9.30
2019-05-03T19:07:08.038Z,9.20
2019-05-03T19:09:44.064Z,9.20
2019-05-03T19:12:15.463Z,9.20
2019-05-03T19:14:44.828Z,9.20
2019-05-03T19:17:18.468Z,9.10
2019-05-03T19:19:58.132Z,9.10
2019-05-03T19:22:27.018Z,9.00
2019-05-03T19:24:55.483Z,9.00
2019-05-03T19:27:25.126Z,8.90
2019-05-03T19:29:55.398Z,8.90
2019-05-03T19:32:25.497Z,9.00
2019-05-03T19:34:55.021Z,9.10
2019-05-03T19:37:25.152Z,9.20
2019-05-03T19:39:55.276Z,9.30
2019-05-03T19:42:26.909Z,9.40
2019-05-03T19:44:55.436Z,9.40
2019-05-03T19:47:25.193Z,9.40
2019-05-03T19:49:54.687Z,9.40
2019-05-03T19:52:25.574Z,9.50
2019-05-03T19:54:55.422Z,9.40
2019-05-03T19:57:25.837Z,9.30
2019-05-03T19:59:56.899Z,9.20
2019-05-03T20:02:29.893Z,9.10
2019-05-03T20:05:16.538Z,9.00
2019-05-03T20:08:05.038Z,8.80
2019-05-03T20:10:35.122Z,8.80
2019-05-03T20:13:04.649Z,8.80
2019-05-03T20:15:33.380Z,8.80
2019-05-03T20:18:02.009Z,8.80
2019-05-03T20:20:30.619Z,8.90
2019-05-03T20:22:59.162Z,8.90
2019-05-03T20:25:27.704Z,9.00
2019-05-03T20:27:56.335Z,9.10
2019-05-03T20:30:25.476Z,9.20
2019-05-03T20:32:55.563Z,9.30
2019-05-03T20:35:25.233Z,9.30
2019-05-03T20:37:55.385Z,9.30
2019-05-03T20:40:25.658Z,9.30
2019-05-03T20:42:55.919Z,9.20
2019-05-03T20:45:35.528Z,9.30
2019-05-03T20:48:05.860Z,9.30
2019-05-03T20:50:35.307Z,9.30
2019-05-03T20:53:05.358Z,9.30
2019-05-03T20:55:34.726Z,9.30
2019-05-03T20:58:03.462Z,9.30
2019-05-03T21:00:32.071Z,9.30
2019-05-03T21:03:00.634Z,9.10
2019-05-03T21:05:32.984Z,9.00
2019-05-03T21:07:59.381Z,8.90
2019-05-03T21:10:27.922Z,8.90
2019-05-03T21:12:56.556Z,8.90
2019-05-03T21:15:44.875Z,8.90
2019-05-03T21:18:30.128Z,8.90
2019-05-03T21:21:08.952Z,8.80
2019-05-03T21:23:55.425Z,8.50
2019-05-03T21:26:25.414Z,8.40
2019-05-03T21:28:55.343Z,8.30
2019-05-03T21:31:24.664Z,8.20
2019-05-03T21:33:55.124Z,8.20
2019-05-03T21:36:25.372Z,8.30
2019-05-03T21:38:54.822Z,8.30
2019-05-03T21:41:24.647Z,8.30
2019-05-03T21:43:54.483Z,8.40
2019-05-03T21:46:25.577Z,8.40
2019-05-03T21:48:58.692Z,8.40
2019-05-03T21:51:27.306Z,8.40
2019-05-03T21:53:55.850Z,8.40
2019-05-03T21:56:24.986Z,8.30
2019-05-03T21:58:55.273Z,8.40
2019-05-03T22:01:25.941Z,8.50
2019-05-03T22:03:54.690Z,8.30
2019-05-03T22:06:24.671Z,8.20
2019-05-03T22:08:55.276Z,8.20
2019-05-03T22:11:25.170Z,8.10
2019-05-03T22:13:57.109Z,8.20
2019-05-03T22:16:27.573Z,8.10
2019-05-03T22:18:56.130Z,8.10
2019-05-03T22:21:29.263Z,8.00
2019-05-03T22:24:05.225Z,8.00
2019-05-03T22:26:53.311Z,7.90
2019-05-03T22:29:22.033Z,7.90
2019-05-03T22:31:50.629Z,7.80
2019-05-03T22:34:19.250Z,7.80
2019-05-03T22:36:47.867Z,7.80
2019-05-03T22:39:16.473Z,7.90
2019-05-03T22:41:45.091Z,8.00
2019-05-03T22:44:14.755Z,8.00
2019-05-03T22:46:44.584Z,8.00
2019-05-03T22:49:15.483Z,8.00
2019-05-03T22:51:45.148Z,8.00
2019-05-03T22:54:15.404Z,8.10
2019-05-03T22:56:44.787Z,8.20
2019-05-03T22:59:14.766Z,8.40
2019-05-03T23:01:45.598Z,8.50
2019-05-03T23:04:14.706Z,8.50
2019-05-03T23:06:46.690Z,8.40
2019-05-03T23:09:15.876Z,8.50
2019-05-03T23:11:44.743Z,8.50
2019-05-03T23:14:15.139Z,8.50
2019-05-03T23:16:44.856Z,8.40
2019-05-03T23:19:14.980Z,8.40
2019-05-03T23:21:48.368Z,8.20
2019-05-03T23:24:16.971Z,8.20
2019-05-03T23:26:45.509Z,8.10
2019-05-03T23:29:14.061Z,8.00
2019-05-03T23:31:44.704Z,7.70
2019-05-03T23:34:12.893Z,7.50
2019-05-03T23:36:41.432Z,7.30
2019-05-03T23:39:10.071Z,7.10
2019-05-03T23:41:38.619Z,7.00
2019-05-03T23:44:07.291Z,7.00
2019-05-03T23:46:37.560Z,6.80
2019-05-03T23:49:06.087Z,6.70
2019-05-03T23:51:51.365Z,6.70
2019-05-03T23:54:20.032Z,6.60
2019-05-03T23:56:48.699Z,6.50
2019-05-03T23:59:17.395Z,6.40
